Time;durP1;ratioP1;P1;durP2;ratioP2;P2;SDS_P1;SDS_P2;PMS_P1;PMS_P2;Temp;Humidity;BMP_temperature;BMP_pressure;BME280_temperature;BME280_humidity;BME280_pressure;Samples;Min_cycle;Max_cycle;Signal;HPM_P1;HPM_P2
2022/07/22 00:02:22;;;;;;;8.87;2.50;;;16.70;99.90;;;;;;5157137;27;20037;-82
2022/07/22 00:04:48;;;;;;;8.40;2.30;;;16.70;99.90;;;;;;5139512;27;20035;-84
2022/07/22 00:07:14;;;;;;;7.90;2.30;;;16.70;99.90;;;;;;5157804;27;20045;-83
2022/07/22 00:09:40;;;;;;;7.75;3.00;;;16.70;99.90;;;;;;5139249;27;20094;-85
2022/07/22 00:12:05;;;;;;;5.50;2.67;;;16.70;99.90;;;;;;5157418;27;20129;-84
2022/07/22 00:14:31;;;;;;;5.87;2.70;;;16.70;99.90;;;;;;5138831;27;20046;-85
2022/07/22 00:16:57;;;;;;;4.30;2.60;;;16.70;99.90;;;;;;5157638;27;20038;-86
2022/07/22 00:19:24;;;;;;;8.20;2.93;;;17.00;99.90;;;;;;5139126;27;20062;-85
2022/07/22 00:21:50;;;;;;;8.02;3.50;;;16.70;99.90;;;;;;5138967;27;20074;-85
2022/07/22 00:24:16;;;;;;;8.40;3.35;;;16.60;99.90;;;;;;5157998;27;20042;-84
2022/07/22 00:26:41;;;;;;;9.90;3.00;;;16.60;99.90;;;;;;5162797;27;20114;-84
2022/07/22 00:29:07;;;;;;;7.70;2.83;;;16.60;99.90;;;;;;5162886;27;20110;-84
2022/07/22 00:31:33;;;;;;;7.47;3.00;;;16.50;99.90;;;;;;5160400;27;20043;-83
2022/07/22 00:34:02;;;;;;;8.97;2.70;;;16.50;99.90;;;;;;5138404;27;20042;-86
2022/07/22 00:36:29;;;;;;;9.02;3.10;;;16.40;99.90;;;;;;5156922;27;20391;-84
2022/07/22 00:38:56;;;;;;;8.85;3.65;;;16.40;99.90;;;;;;5157051;27;20049;-85
2022/07/22 00:41:21;;;;;;;10.03;3.43;;;16.40;99.90;;;;;;5138293;27;20046;-84
2022/07/22 00:43:53;;;;;;;7.43;3.07;;;16.40;99.90;;;;;;5157110;27;20264;-83
2022/07/22 00:46:18;;;;;;;7.63;3.25;;;16.30;99.90;;;;;;5157091;27;20552;-84
2022/07/22 00:48:44;;;;;;;7.27;3.40;;;16.30;99.90;;;;;;5122578;27;20042;-84
2022/07/22 00:51:10;;;;;;;7.90;2.93;;;16.80;99.90;;;;;;5157425;27;20038;-85
2022/07/22 00:53:35;;;;;;;8.70;3.63;;;16.30;99.90;;;;;;5156852;27;20096;-82
2022/07/22 00:56:03;;;;;;;11.03;3.37;;;16.30;99.90;;;;;;5156864;27;20050;-87
2022/07/22 00:58:28;;;;;;;9.38;3.53;;;16.30;99.90;;;;;;5138060;27;20038;-84
2022/07/22 01:00:54;;;;;;;8.67;3.00;;;16.30;99.90;;;;;;5138136;27;20042;-85
2022/07/22 01:03:20;;;;;;;9.07;3.47;;;16.30;99.90;;;;;;5137869;27;20410;-84
2022/07/22 01:05:46;;;;;;;11.47;3.87;;;16.20;99.90;;;;;;5156645;27;20038;-85
2022/07/22 01:08:12;;;;;;;11.97;3.70;;;16.30;99.90;;;;;;5156636;27;20110;-86
2022/07/22 01:10:37;;;;;;;6.78;3.20;;;16.60;99.90;;;;;;5137952;27;20130;-84
2022/07/22 01:13:03;;;;;;;9.17;3.10;;;16.20;99.90;;;;;;5136514;27;20137;-86
2022/07/22 01:15:28;;;;;;;7.13;2.97;;;16.30;99.90;;;;;;5120518;27;20084;-85
2022/07/22 01:17:54;;;;;;;8.80;2.97;;;16.20;99.90;;;;;;5137459;27;20035;-85
2022/07/22 01:20:20;;;;;;;11.57;3.70;;;16.20;99.90;;;;;;5137929;27;20089;-84
2022/07/22 01:22:45;;;;;;;8.23;4.00;;;16.20;99.90;;;;;;5156238;27;20474;-86
2022/07/22 01:25:11;;;;;;;6.97;3.90;;;16.30;99.90;;;;;;5156150;27;20035;-87
2022/07/22 01:27:37;;;;;;;8.05;3.78;;;16.30;99.90;;;;;;5137890;27;20038;-87
2022/07/22 01:30:07;;;;;;;9.33;4.07;;;16.30;99.90;;;;;;5137570;27;20041;-85
2022/07/22 01:32:33;;;;;;;15.05;4.20;;;16.30;99.90;;;;;;5156056;27;20042;-84
2022/07/22 01:34:59;;;;;;;10.83;4.63;;;16.30;99.90;;;;;;5137535;27;20149;-86
2022/07/22 01:37:25;;;;;;;14.47;3.90;;;16.30;99.90;;;;;;5155989;27;20077;-86
2022/07/22 01:39:51;;;;;;;9.00;4.23;;;16.40;99.90;;;;;;5137164;27;20488;-84
2022/07/22 01:42:16;;;;;;;9.43;4.30;;;16.40;99.90;;;;;;5137143;27;20072;-84
2022/07/22 01:44:42;;;;;;;9.57;4.23;;;16.40;99.90;;;;;;5155927;27;20074;-84
2022/07/22 01:47:09;;;;;;;7.13;3.87;;;16.40;99.90;;;;;;5155872;27;20390;-83
2022/07/22 01:49:34;;;;;;;11.88;4.18;;;16.40;99.90;;;;;;5155848;27;20045;-86
2022/07/22 01:52:02;;;;;;;9.33;4.03;;;16.40;99.90;;;;;;5137075;27;20117;-86
2022/07/22 01:54:28;;;;;;;14.02;4.10;;;16.50;99.90;;;;;;5155734;27;20035;-86
2022/07/22 01:56:54;;;;;;;12.27;4.23;;;16.40;99.90;;;;;;5155519;27;20027;-83
2022/07/22 01:59:19;;;;;;;10.20;4.77;;;16.40;99.90;;;;;;5155414;27;20091;-85
2022/07/22 02:01:45;;;;;;;12.93;4.00;;;16.40;99.90;;;;;;5155641;27;20027;-83
2022/07/22 02:04:10;;;;;;;11.17;3.70;;;16.40;99.90;;;;;;5119931;27;20031;-84
2022/07/22 02:06:36;;;;;;;10.50;4.00;;;16.40;99.90;;;;;;5136902;27;20027;-85
2022/07/22 02:09:02;;;;;;;10.33;3.77;;;16.40;99.90;;;;;;5137216;27;20134;-85
2022/07/22 02:11:28;;;;;;;10.05;4.13;;;16.40;99.90;;;;;;5136942;27;20034;-83
2022/07/22 02:13:53;;;;;;;10.47;3.90;;;16.30;99.90;;;;;;5155484;27;20051;-86
2022/07/22 02:16:19;;;;;;;14.93;3.97;;;16.30;99.90;;;;;;5155494;27;20039;-85
2022/07/22 02:18:44;;;;;;;10.53;3.97;;;16.30;99.90;;;;;;5155295;27;20074;-86
2022/07/22 02:21:10;;;;;;;11.70;4.10;;;16.30;99.90;;;;;;5136991;27;20038;-84
2022/07/22 02:23:36;;;;;;;9.83;3.90;;;16.30;99.90;;;;;;5137035;27;20030;-83
2022/07/22 02:26:01;;;;;;;10.30;3.57;;;16.20;99.90;;;;;;5159465;27;20038;-86
2022/07/22 02:28:27;;;;;;;11.97;3.43;;;16.20;99.90;;;;;;5159761;27;20073;-86
2022/07/22 02:30:53;;;;;;;10.20;3.57;;;16.20;99.90;;;;;;5159411;27;20043;-82
2022/07/22 02:33:19;;;;;;;10.80;3.77;;;16.40;99.90;;;;;;5159610;27;20041;-83
2022/07/22 02:35:45;;;;;;;11.18;3.35;;;16.20;99.90;;;;;;5140723;27;20151;-86
2022/07/22 02:38:10;;;;;;;11.80;4.13;;;16.20;99.90;;;;;;5159484;27;20189;-82
2022/07/22 02:40:36;;;;;;;11.60;3.07;;;16.20;99.90;;;;;;5140926;27;20123;-84
2022/07/22 02:43:02;;;;;;;13.27;3.40;;;16.10;99.90;;;;;;5159432;27;20039;-85
2022/07/22 02:45:27;;;;;;;14.33;3.83;;;16.20;99.90;;;;;;5140815;27;20041;-84
2022/07/22 02:47:55;;;;;;;12.30;3.40;;;16.20;99.90;;;;;;5140626;27;20117;-83
2022/07/22 02:50:21;;;;;;;10.05;3.40;;;16.10;99.90;;;;;;5123337;27;20038;-85
2022/07/22 02:52:47;;;;;;;10.77;3.63;;;16.10;99.90;;;;;;5159235;27;20427;-85
2022/07/22 02:55:13;;;;;;;9.33;3.43;;;16.10;99.90;;;;;;5140727;27;20030;-85
2022/07/22 02:57:39;;;;;;;10.73;3.43;;;16.10;99.90;;;;;;5140279;27;20490;-84
2022/07/22 03:00:07;;;;;;;11.17;3.60;;;16.20;99.90;;;;;;5159111;27;20274;-83
2022/07/22 03:02:33;;;;;;;11.68;3.60;;;16.10;99.90;;;;;;5158990;27;20038;-83
2022/07/22 03:04:58;;;;;;;9.77;3.43;;;16.10;99.90;;;;;;5140174;27;20510;-84
2022/07/22 03:07:24;;;;;;;12.27;3.37;;;16.10;99.90;;;;;;5140278;27;20436;-83
2022/07/22 03:09:50;;;;;;;8.87;3.37;;;16.20;99.90;;;;;;5140474;27;20074;-83
2022/07/22 03:12:15;;;;;;;11.80;3.40;;;16.10;99.90;;;;;;5140184;27;20055;-83
2022/07/22 03:14:41;;;;;;;8.27;3.30;;;16.60;99.90;;;;;;5158760;27;20386;-83
2022/07/22 03:17:06;;;;;;;11.33;3.30;;;16.60;99.90;;;;;;5140196;27;20043;-83
2022/07/22 03:19:32;;;;;;;8.87;3.50;;;16.10;99.90;;;;;;5140258;27;20030;-84
2022/07/22 03:21:57;;;;;;;10.30;3.27;;;16.20;99.90;;;;;;5158770;27;20035;-83
2022/07/22 03:24:23;;;;;;;9.50;3.30;;;16.10;99.90;;;;;;5140194;27;20037;-83
2022/07/22 03:26:48;;;;;;;11.70;3.17;;;16.10;99.90;;;;;;5158661;27;20057;-83
2022/07/22 03:29:14;;;;;;;9.73;3.17;;;16.10;99.90;;;;;;5139985;27;20078;-83
2022/07/22 03:31:40;;;;;;;11.90;3.70;;;16.10;99.90;;;;;;5158487;27;20363;-83
2022/07/22 03:34:05;;;;;;;8.57;3.30;;;16.10;99.90;;;;;;5158431;27;20083;-83
2022/07/22 03:36:31;;;;;;;11.37;3.20;;;16.10;99.90;;;;;;5121377;27;20047;-83
2022/07/22 03:38:56;;;;;;;7.57;2.90;;;16.10;99.90;;;;;;5139864;27;20122;-83
2022/07/22 03:41:22;;;;;;;6.87;3.07;;;16.10;99.90;;;;;;5139979;27;20083;-83
2022/07/22 03:43:48;;;;;;;12.10;3.50;;;16.10;99.90;;;;;;5158288;27;20083;-83
2022/07/22 03:46:14;;;;;;;10.57;3.43;;;16.10;99.90;;;;;;5158358;27;20057;-83
2022/07/22 03:48:39;;;;;;;11.07;2.90;;;16.10;99.90;;;;;;5158077;27;20508;-83
2022/07/22 03:51:05;;;;;;;6.77;3.00;;;16.10;99.90;;;;;;5157874;27;20049;-83
2022/07/22 03:53:32;;;;;;;9.10;3.20;;;16.10;99.90;;;;;;5139376;27;20041;-83
2022/07/22 03:55:58;;;;;;;10.73;2.90;;;16.10;99.90;;;;;;5139512;27;20061;-83
2022/07/22 03:58:26;;;;;;;5.30;2.43;;;16.10;99.90;;;;;;5139454;27;20034;-82
2022/07/22 04:00:52;;;;;;;8.15;2.50;;;16.10;99.90;;;;;;5157849;27;20282;-83
2022/07/22 04:03:18;;;;;;;7.43;2.83;;;16.30;99.90;;;;;;5138894;27;20397;-83
2022/07/22 04:05:44;;;;;;;9.93;3.10;;;16.10;99.90;;;;;;5157809;27;20035;-83
2022/07/22 04:08:10;;;;;;;7.30;2.90;;;16.20;99.90;;;;;;5157756;27;20034;-83
2022/07/22 04:10:35;;;;;;;7.60;2.70;;;16.10;99.90;;;;;;5157727;27;20039;-83
2022/07/22 04:13:01;;;;;;;7.33;2.60;;;16.10;99.90;;;;;;5138739;27;20494;-83
2022/07/22 04:15:26;;;;;;;9.47;2.90;;;16.10;99.90;;;;;;5138736;27;20039;-83
2022/07/22 04:17:52;;;;;;;7.37;2.60;;;16.10;99.90;;;;;;5157411;27;20121;-83
2022/07/22 04:20:18;;;;;;;5.07;2.37;;;16.10;99.90;;;;;;5157592;27;20039;-83
2022/07/22 04:22:44;;;;;;;8.87;2.73;;;16.00;99.90;;;;;;5157532;27;20035;-83
2022/07/22 04:25:09;;;;;;;9.07;2.60;;;16.10;99.90;;;;;;5139121;27;20154;-83
2022/07/22 04:27:36;;;;;;;8.03;2.77;;;16.00;99.90;;;;;;5157294;27;20035;-83
2022/07/22 04:30:01;;;;;;;6.82;2.45;;;16.10;99.90;;;;;;5157359;27;20439;-84
2022/07/22 04:32:27;;;;;;;6.53;2.53;;;16.10;99.90;;;;;;5157319;27;20121;-83
2022/07/22 04:34:52;;;;;;;7.23;2.47;;;16.10;99.90;;;;;;5157130;27;20034;-81
2022/07/22 04:37:18;;;;;;;7.10;2.50;;;16.10;99.90;;;;;;5157118;27;20046;-81
2022/07/22 04:39:44;;;;;;;5.83;2.50;;;16.10;99.90;;;;;;5157160;27;20501;-81
2022/07/22 04:42:10;;;;;;;6.23;2.50;;;16.10;99.90;;;;;;5138406;27;20042;-81
2022/07/22 04:44:35;;;;;;;11.67;3.03;;;16.10;99.90;;;;;;5138295;27;20109;-81
2022/07/22 04:47:01;;;;;;;8.70;2.73;;;16.10;99.90;;;;;;5138240;27;20038;-82
2022/07/22 04:49:26;;;;;;;7.27;2.80;;;16.10;99.90;;;;;;5138445;27;20117;-82
2022/07/22 04:51:52;;;;;;;5.27;2.60;;;16.10;99.90;;;;;;5138193;27;20091;-82
2022/07/22 04:54:18;;;;;;;6.30;2.60;;;16.20;99.90;;;;;;5138417;27;20039;-81
2022/07/22 04:56:43;;;;;;;8.03;2.93;;;16.10;99.90;;;;;;5138120;27;20371;-82
2022/07/22 04:59:09;;;;;;;12.33;3.10;;;16.20;99.90;;;;;;5156530;27;20083;-82
2022/07/22 05:01:34;;;;;;;8.27;2.50;;;16.20;99.90;;;;;;5138152;27;20118;-82
2022/07/22 05:04:00;;;;;;;13.57;2.97;;;16.20;99.90;;;;;;5156692;27;20038;-82
2022/07/22 05:06:25;;;;;;;11.00;2.73;;;16.20;99.90;;;;;;5156630;27;20498;-82
2022/07/22 05:08:51;;;;;;;7.40;2.50;;;16.20;99.90;;;;;;5138151;27;20412;-82
2022/07/22 05:11:17;;;;;;;8.33;2.60;;;16.40;99.90;;;;;;5137921;27;20082;-82
2022/07/22 05:13:43;;;;;;;5.33;2.00;;;16.20;99.90;;;;;;5156089;27;20061;-82
2022/07/22 05:16:08;;;;;;;6.33;2.37;;;16.20;99.90;;;;;;5156505;27;20047;-82
2022/07/22 05:18:34;;;;;;;8.93;2.63;;;16.20;99.90;;;;;;5156315;27;20398;-82
2022/07/22 05:21:00;;;;;;;7.33;2.60;;;16.20;99.90;;;;;;5156422;27;20500;-82
2022/07/22 05:23:26;;;;;;;8.20;2.40;;;16.20;99.90;;;;;;5156345;27;20105;-82
2022/07/22 05:25:52;;;;;;;7.40;2.63;;;16.30;99.90;;;;;;5156283;27;20542;-82
2022/07/22 05:28:19;;;;;;;9.27;2.30;;;16.30;99.90;;;;;;5156248;27;20049;-83
2022/07/22 05:30:44;;;;;;;10.25;2.53;;;16.30;99.90;;;;;;5156201;27;20393;-83
2022/07/22 05:33:10;;;;;;;6.53;2.37;;;16.40;99.90;;;;;;5156552;27;20105;-82
2022/07/22 05:35:35;;;;;;;7.00;2.50;;;16.40;99.90;;;;;;5156152;27;20054;-83
2022/07/22 05:38:01;;;;;;;7.03;2.33;;;16.40;99.90;;;;;;5156308;27;20038;-83
2022/07/22 05:40:28;;;;;;;6.20;2.53;;;16.50;99.90;;;;;;5156051;27;20038;-83
2022/07/22 05:42:54;;;;;;;7.18;2.78;;;16.50;99.90;;;;;;5137625;27;20103;-83
2022/07/22 05:45:19;;;;;;;6.63;2.60;;;16.60;99.90;;;;;;5155924;27;20034;-83
2022/07/22 05:47:45;;;;;;;8.93;2.27;;;16.60;99.90;;;;;;5137005;27;20095;-83
2022/07/22 05:50:11;;;;;;;6.40;3.03;;;16.60;99.90;;;;;;5137447;27;20039;-83
2022/07/22 05:52:38;;;;;;;9.00;2.50;;;16.60;99.90;;;;;;5137302;27;20564;-83
2022/07/22 05:55:05;;;;;;;5.63;2.53;;;16.60;99.90;;;;;;5155774;27;20050;-83
2022/07/22 05:57:30;;;;;;;7.60;3.85;;;16.70;99.90;;;;;;5155639;27;20125;-83
2022/07/22 05:59:56;;;;;;;8.67;2.83;;;16.70;99.90;;;;;;5155182;27;20070;-83
2022/07/22 06:02:22;;;;;;;8.80;3.20;;;16.70;99.90;;;;;;5155593;27;20049;-82
2022/07/22 06:04:47;;;;;;;8.60;2.60;;;16.70;99.90;;;;;;5155317;27;20026;-81
2022/07/22 06:07:13;;;;;;;8.20;2.50;;;16.70;99.90;;;;;;5155599;27;20059;-82
2022/07/22 06:09:38;;;;;;;6.83;2.20;;;16.80;99.90;;;;;;5155582;27;20117;-82
2022/07/22 06:12:04;;;;;;;6.03;2.30;;;16.80;99.90;;;;;;5155368;27;20082;-82
2022/07/22 06:14:30;;;;;;;6.83;2.63;;;16.80;99.90;;;;;;5136593;27;20046;-81
2022/07/22 06:16:56;;;;;;;5.00;1.93;;;16.80;99.90;;;;;;5155417;27;20038;-82
2022/07/22 06:19:22;;;;;;;7.10;1.90;;;16.90;99.90;;;;;;5155443;27;20038;-82
2022/07/22 06:21:48;;;;;;;7.30;2.05;;;16.90;99.90;;;;;;5136653;27;20066;-82
2022/07/22 06:24:14;;;;;;;7.37;2.13;;;17.00;99.90;;;;;;5136641;27;20439;-82
2022/07/22 06:26:39;;;;;;;7.93;2.13;;;16.90;99.90;;;;;;5155376;27;20043;-83
2022/07/22 06:29:05;;;;;;;4.20;1.77;;;17.00;99.90;;;;;;5155359;27;20497;-83
2022/07/22 06:31:30;;;;;;;3.87;2.00;;;17.00;99.90;;;;;;5136833;27;20393;-83
2022/07/22 06:33:56;;;;;;;4.63;1.90;;;17.00;99.90;;;;;;5136783;27;20087;-83
2022/07/22 06:36:21;;;;;;;7.27;2.00;;;17.00;99.90;;;;;;5155307;27;20034;-83
2022/07/22 06:38:47;;;;;;;5.43;1.97;;;17.10;99.90;;;;;;5154916;27;20090;-84
2022/07/22 06:41:13;;;;;;;8.33;1.90;;;17.10;99.90;;;;;;5136499;27;20034;-84
2022/07/22 06:43:39;;;;;;;5.33;1.80;;;17.20;99.90;;;;;;5155294;27;20219;-81
2022/07/22 06:46:05;;;;;;;6.82;2.13;;;17.20;99.90;;;;;;5136670;27;20051;-81
2022/07/22 06:48:31;;;;;;;4.17;1.40;;;17.30;99.90;;;;;;5136407;27;20039;-80
2022/07/22 06:50:56;;;;;;;5.10;1.80;;;17.30;99.90;;;;;;5136460;27;20038;-83
2022/07/22 06:53:22;;;;;;;7.03;2.13;;;17.30;99.90;;;;;;5155100;27;20507;-82
2022/07/22 06:55:47;;;;;;;4.00;1.50;;;17.30;99.90;;;;;;5136685;27;20041;-82
2022/07/22 06:58:13;;;;;;;7.70;1.90;;;17.40;99.90;;;;;;5154983;27;20382;-82
2022/07/22 07:00:38;;;;;;;5.50;1.90;;;17.40;99.90;;;;;;5155050;27;20265;-82
2022/07/22 07:03:04;;;;;;;6.63;2.10;;;17.50;99.90;;;;;;5135964;27;20077;-83
2022/07/22 07:05:30;;;;;;;5.23;1.83;;;17.50;99.90;;;;;;5136220;27;20031;-84
2022/07/22 07:07:56;;;;;;;5.40;1.87;;;17.60;99.90;;;;;;5119230;27;20045;-81
2022/07/22 07:10:22;;;;;;;6.50;2.20;;;17.60;99.90;;;;;;5137458;27;20121;-82
2022/07/22 07:12:48;;;;;;;6.13;2.10;;;17.60;99.90;;;;;;5158428;27;20409;-82
2022/07/22 07:15:13;;;;;;;6.90;1.97;;;17.60;99.90;;;;;;5140403;27;20038;-82
2022/07/22 07:17:39;;;;;;;6.97;2.10;;;17.70;99.90;;;;;;5139863;27;20053;-81
2022/07/22 07:20:06;;;;;;;4.43;1.57;;;17.90;99.90;;;;;;5140042;27;20431;-82
2022/07/22 07:22:32;;;;;;;5.13;1.63;;;17.70;99.90;;;;;;5158717;27;20031;-82
2022/07/22 07:25:05;;;;;;;4.63;1.60;;;17.70;99.90;;;;;;5123170;27;20045;-81
2022/07/22 07:27:30;;;;;;;5.43;1.80;;;17.80;99.90;;;;;;5140063;27;20091;-82
2022/07/22 07:29:56;;;;;;;6.87;1.97;;;17.80;99.90;;;;;;5158586;27;20038;-82
2022/07/22 07:32:21;;;;;;;5.03;1.90;;;17.80;99.90;;;;;;5158432;27;20043;-82
2022/07/22 07:34:47;;;;;;;5.73;2.00;;;17.90;99.90;;;;;;5158467;27;20053;-82
2022/07/22 07:37:13;;;;;;;6.27;1.50;;;17.90;99.90;;;;;;5140233;27;20035;-82
2022/07/22 07:39:39;;;;;;;6.53;1.80;;;18.00;99.90;;;;;;5158378;27;20083;-82
2022/07/22 07:42:04;;;;;;;6.57;1.83;;;18.00;99.90;;;;;;5139704;27;20070;-82
2022/07/22 07:44:30;;;;;;;3.53;1.37;;;18.10;99.90;;;;;;5158333;27;20039;-83
2022/07/22 07:46:55;;;;;;;5.10;1.53;;;18.10;99.90;;;;;;5158198;27;20035;-83
2022/07/22 07:49:21;;;;;;;7.33;1.63;;;18.20;99.90;;;;;;5139426;27;20034;-82
2022/07/22 07:51:47;;;;;;;5.37;1.30;;;18.20;99.90;;;;;;5158158;27;20049;-83
2022/07/22 07:54:12;;;;;;;3.43;1.50;;;18.30;99.90;;;;;;5157936;27;20133;-82
2022/07/22 07:56:38;;;;;;;4.53;1.50;;;18.30;99.90;;;;;;5139702;27;20042;-82
2022/07/22 07:59:03;;;;;;;4.67;1.57;;;18.40;99.90;;;;;;5157922;27;20512;-82
2022/07/22 08:01:29;;;;;;;3.90;1.50;;;18.40;99.90;;;;;;5122315;27;20043;-82
2022/07/22 08:03:55;;;;;;;4.47;1.33;;;18.50;99.90;;;;;;5157898;27;20530;-82
2022/07/22 08:06:20;;;;;;;6.00;1.63;;;18.50;99.90;;;;;;5139066;27;20039;-82
2022/07/22 08:08:46;;;;;;;7.10;1.50;;;18.60;99.90;;;;;;5138834;27;20518;-81
2022/07/22 08:11:13;;;;;;;3.97;1.40;;;18.50;99.90;;;;;;5157525;27;20078;-82
2022/07/22 08:13:39;;;;;;;5.97;1.52;;;18.50;99.90;;;;;;5157456;27;20047;-82
2022/07/22 08:16:05;;;;;;;5.70;1.47;;;18.50;99.90;;;;;;5138802;27;20043;-82
2022/07/22 08:18:30;;;;;;;5.60;1.60;;;18.50;99.90;;;;;;5138829;27;20466;-82
2022/07/22 08:20:56;;;;;;;6.70;1.90;;;18.70;99.90;;;;;;5157569;27;20030;-81
2022/07/22 08:23:22;;;;;;;5.60;1.33;;;18.60;99.90;;;;;;5156967;27;20045;-81
2022/07/22 08:25:47;;;;;;;7.03;2.17;;;18.60;99.90;;;;;;5157514;27;20037;-81
2022/07/22 08:28:13;;;;;;;4.97;1.60;;;18.60;99.90;;;;;;5157420;27;20121;-81
2022/07/22 08:30:40;;;;;;;4.20;1.37;;;18.70;99.90;;;;;;5139128;27;20038;-81
2022/07/22 08:33:06;;;;;;;5.32;1.52;;;18.80;99.90;;;;;;5157301;27;20050;-82
2022/07/22 08:35:31;;;;;;;3.67;1.30;;;18.90;99.90;;;;;;5138538;27;20049;-81
2022/07/22 08:37:57;;;;;;;5.20;1.33;;;19.00;99.90;;;;;;5157135;27;20296;-82
2022/07/22 08:40:23;;;;;;;4.63;1.40;;;19.20;99.90;;;;;;5138336;27;20030;-82
2022/07/22 08:42:50;;;;;;;5.90;1.80;;;19.20;99.90;;;;;;5157070;27;20053;-82
2022/07/22 08:45:16;;;;;;;;;;;19.30;99.90;;;;;;5157193;27;20474;-82
2022/07/22 08:47:51;;;;;;;5.82;1.23;;;19.30;99.90;;;;;;5138508;27;19981;-81
2022/07/22 08:50:17;;;;;;;5.35;1.13;;;19.40;99.90;;;;;;5156958;27;20038;-82
2022/07/22 08:52:43;;;;;;;4.88;1.40;;;19.40;99.90;;;;;;5156889;27;20109;-82
2022/07/22 08:55:09;;;;;;;4.35;1.30;;;19.40;99.90;;;;;;5156876;27;20034;-82
2022/07/22 08:57:37;;;;;;;4.20;1.50;;;19.40;99.90;;;;;;5138344;27;20042;-81
2022/07/22 09:00:10;;;;;;;5.03;1.30;;;19.30;99.90;;;;;;5157815;27;20114;-82
2022/07/22 09:02:40;;;;;;;4.57;1.40;;;19.30;99.90;;;;;;5122315;27;20035;-82
2022/07/22 09:05:08;;;;;;;5.03;1.27;;;19.20;99.90;;;;;;5157837;27;20035;-82
2022/07/22 09:07:42;;;;;;;3.78;1.50;;;19.20;99.90;;;;;;5139435;27;20054;-82
2022/07/22 09:10:10;;;;;;;7.22;1.42;;;19.20;99.90;;;;;;5138880;27;20226;-82
2022/07/22 09:12:55;;;;;;;5.85;1.50;;;19.20;99.90;;;;;;5157567;27;20541;-82
2022/07/22 09:15:29;;;;;;;4.07;1.30;;;19.30;99.90;;;;;;5122324;27;20478;-82
2022/07/22 09:17:55;;;;;;;7.47;1.60;;;19.20;99.90;;;;;;5157325;27;20039;-82
2022/07/22 09:20:21;;;;;;;5.27;1.50;;;19.00;99.90;;;;;;5137808;27;20031;-82
2022/07/22 09:22:48;;;;;;;5.57;1.50;;;19.00;99.90;;;;;;5137785;27;20066;-82
2022/07/22 09:25:34;;;;;;;5.15;1.70;;;18.90;99.90;;;;;;5156291;27;20038;-82
2022/07/22 09:28:05;;;;;;;6.00;1.40;;;18.90;99.90;;;;;;5156105;27;20053;-81
2022/07/22 09:30:33;;;;;;;4.22;1.30;;;18.90;99.90;;;;;;5156226;27;20390;-82
2022/07/22 09:32:58;;;;;;;6.25;1.55;;;19.00;99.90;;;;;;5155889;27;20030;-82
2022/07/22 09:35:27;;;;;;;6.60;1.67;;;19.00;99.90;;;;;;5155403;27;20119;-81
2022/07/22 09:37:58;;;;;;;3.97;1.40;;;19.10;99.90;;;;;;5155945;27;20039;-82
2022/07/22 09:40:24;;;;;;;5.05;1.60;;;19.10;99.90;;;;;;5137598;27;20429;-82
2022/07/22 09:42:51;;;;;;;;;;;19.20;99.90;;;;;;5156431;27;20035;-81
2022/07/22 09:45:18;;;;;;;3.75;1.42;;;19.20;99.90;;;;;;5155913;27;19914;-82
2022/07/22 09:47:44;;;;;;;5.15;1.70;;;19.20;99.90;;;;;;5137441;27;20042;-81
2022/07/22 09:50:14;;;;;;;4.95;1.40;;;19.30;99.90;;;;;;5155752;27;20050;-82
2022/07/22 09:52:41;;;;;;;6.95;1.60;;;19.30;99.90;;;;;;5136983;27;20064;-82
2022/07/22 09:55:11;;;;;;;5.18;1.90;;;19.40;99.90;;;;;;5137353;27;20475;-82
2022/07/22 09:57:36;;;;;;;6.10;1.80;;;19.40;99.90;;;;;;5137122;27;20038;-82
2022/07/22 10:00:06;;;;;;;5.10;1.70;;;19.30;99.90;;;;;;5155547;27;20030;-81
2022/07/22 10:02:35;;;;;;;5.03;1.50;;;19.30;99.90;;;;;;5137094;27;20490;-81
2022/07/22 10:05:02;;;;;;;6.80;1.48;;;19.30;99.90;;;;;;5155539;27;20049;-81
2022/07/22 10:07:28;;;;;;;6.03;1.50;;;19.30;99.90;;;;;;5137763;27;20035;-81
2022/07/22 10:09:54;;;;;;;3.57;1.40;;;19.30;99.90;;;;;;5155626;27;20026;-81
2022/07/22 10:12:20;;;;;;;6.23;1.53;;;19.40;99.90;;;;;;5155301;27;20098;-82
2022/07/22 10:14:47;;;;;;;6.32;1.77;;;19.40;99.90;;;;;;5155640;27;20039;-80
2022/07/22 10:17:14;;;;;;;5.10;1.63;;;19.40;99.90;;;;;;5136991;27;20474;-81
2022/07/22 10:19:40;;;;;;;5.57;1.58;;;19.50;99.90;;;;;;5155549;27;20038;-81
2022/07/22 10:22:47;;;;;;;5.97;1.43;;;19.60;99.90;;;;;;5155499;27;20486;-81
2022/07/22 10:25:14;;;;;;;5.50;1.23;;;19.70;99.90;;;;;;5155410;27;20038;-81
2022/07/22 10:28:00;;;;;;;5.63;1.60;;;19.70;99.90;;;;;;5136882;27;20038;-81
2022/07/22 10:30:31;;;;;;;6.32;1.70;;;19.80;99.90;;;;;;5155292;27;20080;-81
2022/07/22 10:33:20;;;;;;;7.03;1.33;;;19.90;99.90;;;;;;5136565;27;20065;-81
2022/07/22 10:36:02;;;;;;;4.38;1.30;;;20.00;99.90;;;;;;5155277;27;20135;-81
2022/07/22 10:38:29;;;;;;;5.68;1.60;;;20.10;99.90;;;;;;5155059;27;20043;-81
2022/07/22 10:41:00;;;;;;;3.75;1.50;;;20.20;99.90;;;;;;5136551;27;20106;-81
2022/07/22 10:43:28;;;;;;;5.07;1.45;;;20.30;99.90;;;;;;5155470;27;20050;-81
2022/07/22 10:45:59;;;;;;;3.47;1.35;;;20.50;99.90;;;;;;5138760;27;20035;-81
2022/07/22 10:48:24;;;;;;;3.72;1.45;;;20.40;99.90;;;;;;5159386;27;20042;-80
2022/07/22 10:51:15;;;;;;;5.60;1.70;;;20.60;99.90;;;;;;5159300;27;20034;-81
2022/07/22 10:53:56;;;;;;;3.97;1.60;;;20.60;99.90;;;;;;5130855;27;20486;-81
2022/07/22 10:56:26;;;;;;;4.88;1.60;;;20.50;99.90;;;;;;5159148;27;20481;-80
2022/07/22 10:58:58;;;;;;;3.67;1.35;;;20.50;99.90;;;;;;5159118;27;20046;-80
2022/07/22 11:01:29;;;;;;;3.80;1.30;;;20.60;99.90;;;;;;5159122;27;20037;-80
2022/07/22 11:03:56;;;;;;;4.13;1.10;;;20.60;99.90;;;;;;5140325;27;20043;-80
2022/07/22 11:06:26;;;;;;;1.90;1.05;;;20.80;99.90;;;;;;5159113;27;20030;-80
2022/07/22 11:09:00;;;;;;;3.17;1.10;;;20.90;99.90;;;;;;5159017;27;20042;-80
2022/07/22 11:11:34;;;;;;;2.90;1.40;;;21.00;99.90;;;;;;5158906;27;20099;-80
2022/07/22 11:14:00;;;;;;;3.20;1.08;;;21.10;99.90;;;;;;5158871;27;20049;-81
2022/07/22 11:16:27;;;;;;;2.47;1.10;;;21.10;99.90;;;;;;5158656;27;20118;-80
2022/07/22 11:18:57;;;;;;;5.10;1.30;;;21.00;99.90;;;;;;5140570;27;20074;-80
2022/07/22 11:21:25;;;;;;;4.15;1.10;;;21.00;99.90;;;;;;5158433;27;20470;-80
2022/07/22 11:23:53;;;;;;;2.53;1.10;;;20.80;99.90;;;;;;5158695;27;20083;-81
2022/07/22 11:26:25;;;;;;;3.25;1.20;;;20.60;99.90;;;;;;5158560;27;20091;-80
2022/07/22 11:28:51;;;;;;;2.00;0.90;;;20.70;99.90;;;;;;5158633;27;20091;-80
2022/07/22 11:31:18;;;;;;;4.73;1.30;;;20.50;99.90;;;;;;5158608;27;20034;-80
2022/07/22 11:33:44;;;;;;;4.72;1.40;;;20.40;99.90;;;;;;5158504;27;20161;-80
2022/07/22 11:36:10;;;;;;;;;;;20.30;99.90;;;;;;5158618;27;20500;-80
2022/07/22 11:38:50;;;;;;;4.47;1.40;;;20.10;99.90;;;;;;5158355;27;19919;-81
2022/07/22 11:41:17;;;;;;;4.50;1.27;;;20.00;99.90;;;;;;5158059;27;20049;-81
2022/07/22 11:43:48;;;;;;;4.20;1.70;;;19.90;99.90;;;;;;5158291;27;20045;-80
2022/07/22 11:46:15;;;;;;;3.85;1.50;;;19.90;99.90;;;;;;5158096;27;20041;-80
2022/07/22 11:48:42;;;;;;;4.28;1.42;;;19.80;99.90;;;;;;5122232;27;20039;-80
2022/07/22 11:51:10;;;;;;;5.10;1.45;;;19.70;99.90;;;;;;5158111;27;20074;-80
2022/07/22 11:53:39;;;;;;;9.52;1.67;;;19.70;99.90;;;;;;5157760;27;20043;-80
2022/07/22 11:56:07;;;;;;;8.63;2.00;;;19.70;99.90;;;;;;5157973;27;20394;-81
2022/07/22 11:58:45;;;;;;;4.70;1.50;;;19.70;99.90;;;;;;5157153;27;20086;-80
2022/07/22 12:01:17;;;;;;;3.78;1.63;;;19.70;99.90;;;;;;5158015;27;20363;-80
2022/07/22 12:03:49;;;;;;;6.28;1.77;;;19.70;99.90;;;;;;5157939;27;20455;-80
2022/07/22 12:06:17;;;;;;;5.43;1.83;;;19.70;99.90;;;;;;5157902;27;20034;-80
2022/07/22 12:09:05;;;;;;;5.63;1.70;;;19.70;99.90;;;;;;5139072;27;20483;-80
2022/07/22 12:11:31;;;;;;;5.15;1.48;;;19.80;99.90;;;;;;5157588;27;20038;-80
2022/07/22 12:14:08;;;;;;;5.18;1.35;;;19.80;99.90;;;;;;5157804;27;20043;-81
2022/07/22 12:16:34;;;;;;;4.30;1.30;;;19.80;99.90;;;;;;5157673;27;20043;-81
2022/07/22 12:19:09;;;;;;;2.88;1.33;;;19.80;99.90;;;;;;5157584;27;20444;-81
2022/07/22 12:21:55;;;;;;;2.67;1.17;;;20.00;99.90;;;;;;5157590;27;20031;-80
2022/07/22 12:24:29;;;;;;;4.90;1.58;;;20.10;99.90;;;;;;5139233;27;20379;-80
2022/07/22 12:26:57;;;;;;;4.78;1.80;;;20.20;99.90;;;;;;5157494;27;20038;-80
2022/07/22 12:29:44;;;;;;;5.43;1.35;;;20.20;99.90;;;;;;5138653;27;20042;-81
2022/07/22 12:32:11;;;;;;;4.95;1.15;;;20.20;99.90;;;;;;5156309;27;20438;-81
2022/07/22 12:34:47;;;;;;;4.07;1.45;;;20.20;99.90;;;;;;5157444;27;20428;-80
2022/07/22 12:37:26;;;;;;;5.43;1.38;;;20.10;99.90;;;;;;5157257;27;20031;-80
2022/07/22 12:40:07;;;;;;;4.13;1.33;;;20.20;99.90;;;;;;5157251;27;20043;-80
2022/07/22 12:42:39;;;;;;;6.07;1.83;;;20.30;99.90;;;;;;5157130;27;20079;-81
2022/07/22 12:45:10;;;;;;;2.08;1.00;;;20.40;99.90;;;;;;5157147;27;20114;-81
2022/07/22 12:47:48;;;;;;;4.03;1.23;;;20.40;99.90;;;;;;5156982;27;20386;-81